Time;durP1;ratioP1;P1;durP2;ratioP2;P2;SDS_P1;SDS_P2;PMS_P1;PMS_P2;Temp;Humidity;BMP_temperature;BMP_pressure;BME280_temperature;BME280_humidity;BME280_pressure;Samples;Min_cycle;Max_cycle;Signal;HPM_P1;HPM_P2
2022/12/08 00:01:23;;;;;;;12.82;6.72;;;2.10;99.90;;;;;;5092625;28;20071;-61
2022/12/08 00:03:50;;;;;;;14.05;6.22;;;2.10;99.90;;;;;;5093185;28;20562;-61
2022/12/08 00:09:22;;;;;;;15.52;6.65;;;2.20;99.90;;;;;;5093126;28;20105;-62
2022/12/08 00:12:07;;;;;;;14.35;6.82;;;2.20;99.90;;;;;;5090873;28;20447;-63
2022/12/08 00:14:42;;;;;;;14.43;6.93;;;2.20;99.90;;;;;;5081940;28;20068;-62
2022/12/08 00:17:11;;;;;;;15.02;7.03;;;2.20;99.90;;;;;;5091782;28;20047;-62
2022/12/08 00:19:38;;;;;;;11.85;5.70;;;2.20;99.90;;;;;;5090934;28;20093;-62
2022/12/08 00:22:06;;;;;;;14.45;6.97;;;2.20;99.90;;;;;;5069490;28;20528;-61
2022/12/08 00:24:38;;;;;;;15.15;6.93;;;2.20;99.90;;;;;;5092821;28;20040;-61
2022/12/08 00:27:06;;;;;;;14.73;6.65;;;2.20;99.90;;;;;;5091814;28;20087;-60
2022/12/08 00:29:33;;;;;;;16.05;7.63;;;2.20;99.90;;;;;;5090053;28;20028;-61
2022/12/08 00:32:00;;;;;;;19.30;8.10;;;2.20;99.90;;;;;;5091711;28;20464;-60
2022/12/08 00:34:27;;;;;;;14.27;7.88;;;2.20;99.90;;;;;;5092594;28;20040;-61
2022/12/08 00:36:53;;;;;;;16.90;7.25;;;2.20;99.90;;;;;;5086274;28;20075;-60
2022/12/08 00:39:21;;;;;;;20.02;6.72;;;2.20;99.90;;;;;;5072479;28;20093;-60
2022/12/08 00:44:32;;;;;;;18.38;7.40;;;2.20;99.90;;;;;;5085844;28;20453;-60
2022/12/08 00:46:59;;;;;;;15.40;6.53;;;2.20;99.90;;;;;;5091620;28;20044;-60
2022/12/08 00:49:26;;;;;;;11.65;5.07;;;2.10;99.90;;;;;;5088674;28;20071;-60
2022/12/08 00:51:53;;;;;;;14.32;4.70;;;2.10;99.90;;;;;;5089169;28;20095;-60
2022/12/08 00:54:21;;;;;;;22.92;8.63;;;2.20;99.90;;;;;;5081730;28;20482;-60
2022/12/08 00:56:48;;;;;;;22.55;9.35;;;2.20;99.90;;;;;;5092309;28;20036;-60
2022/12/08 00:59:15;;;;;;;19.48;7.43;;;2.10;99.90;;;;;;5083370;28;20068;-60
2022/12/08 01:01:44;;;;;;;17.90;7.72;;;2.10;99.90;;;;;;5089157;28;20443;-60
2022/12/08 01:04:16;;;;;;;19.30;8.55;;;2.00;99.90;;;;;;5086859;28;20043;-60
2022/12/08 01:06:43;;;;;;;21.52;9.48;;;2.00;99.90;;;;;;5085130;28;20094;-60
2022/12/08 01:09:12;;;;;;;19.17;8.60;;;2.00;99.90;;;;;;5088339;28;20036;-60
2022/12/08 01:11:39;;;;;;;20.13;9.60;;;1.90;99.90;;;;;;5091797;28;20496;-60
2022/12/08 01:14:06;;;;;;;20.30;9.45;;;1.90;99.90;;;;;;5090443;28;20055;-60
2022/12/08 01:16:34;;;;;;;25.55;10.02;;;1.80;99.90;;;;;;5087571;28;20459;-60
2022/12/08 01:19:02;;;;;;;24.05;9.73;;;1.80;99.90;;;;;;5089280;28;20459;-60
2022/12/08 01:21:29;;;;;;;25.25;9.60;;;1.70;99.90;;;;;;5085917;28;20036;-60
2022/12/08 01:23:58;;;;;;;17.85;9.30;;;1.70;99.90;;;;;;5089902;28;20113;-60
2022/12/08 01:26:25;;;;;;;20.38;9.82;;;1.70;99.90;;;;;;5070616;28;20041;-60
2022/12/08 01:28:52;;;;;;;17.33;7.20;;;1.70;99.90;;;;;;5088149;28;20094;-60
2022/12/08 01:31:20;;;;;;;23.17;10.48;;;1.70;99.90;;;;;;5088424;28;20537;-60
2022/12/08 01:33:48;;;;;;;20.48;9.88;;;1.80;99.90;;;;;;5090364;28;20048;-60
2022/12/08 01:36:26;;;;;;;27.83;9.82;;;1.70;99.90;;;;;;5091318;28;20052;-60
2022/12/08 01:38:56;;;;;;;21.17;9.77;;;1.70;99.90;;;;;;5090668;28;20036;-60
2022/12/08 01:41:26;;;;;;;20.45;9.25;;;1.70;99.90;;;;;;5084392;28;20036;-60
2022/12/08 01:43:57;;;;;;;20.55;8.20;;;1.70;99.90;;;;;;5087486;28;20075;-60
2022/12/08 01:46:25;;;;;;;17.50;8.20;;;1.60;99.90;;;;;;5091309;28;20036;-60
2022/12/08 01:49:00;;;;;;;15.27;8.50;;;1.70;99.90;;;;;;5082459;28;20036;-60
2022/12/08 01:51:29;;;;;;;18.17;9.10;;;1.60;99.90;;;;;;5090535;28;20028;-60
2022/12/08 01:53:56;;;;;;;20.45;8.80;;;1.60;99.90;;;;;;5072091;28;20074;-60
2022/12/08 01:56:50;;;;;;;18.80;8.73;;;1.60;99.90;;;;;;5091132;28;20072;-60
2022/12/08 01:59:18;;;;;;;17.63;8.07;;;1.60;99.90;;;;;;5071625;28;20036;-60
2022/12/08 02:01:49;;;;;;;20.45;8.07;;;1.60;99.90;;;;;;5086775;28;20145;-60
2022/12/08 02:04:16;;;;;;;20.73;9.57;;;1.60;99.90;;;;;;5090833;28;20511;-60
2022/12/08 02:06:45;;;;;;;22.73;10.00;;;1.70;99.90;;;;;;5071069;28;20446;-60
2022/12/08 02:09:13;;;;;;;20.42;10.45;;;1.70;99.90;;;;;;5105640;22;20089;-60
2022/12/08 02:11:40;;;;;;;24.92;10.88;;;1.70;99.90;;;;;;5090849;28;20153;-60
2022/12/08 02:14:09;;;;;;;24.02;10.52;;;1.70;99.90;;;;;;5089391;28;20067;-60
2022/12/08 02:17:10;;;;;;;23.50;10.75;;;1.70;99.90;;;;;;5099344;28;20083;-60
2022/12/08 02:19:51;;;;;;;23.63;11.32;;;1.70;99.90;;;;;;5092057;28;20055;-60
2022/12/08 02:22:23;;;;;;;25.60;10.65;;;1.70;99.90;;;;;;5100843;28;20113;-60
2022/12/08 02:25:10;;;;;;;20.15;10.20;;;1.70;99.90;;;;;;5111572;28;20477;-60
2022/12/08 02:28:09;;;;;;;21.13;10.85;;;1.70;99.90;;;;;;5110036;28;20047;-60
2022/12/08 02:30:54;;;;;;;25.00;10.00;;;1.70;99.90;;;;;;5097401;28;20078;-60
2022/12/08 02:33:39;;;;;;;23.90;11.45;;;1.70;99.90;;;;;;5090166;28;20040;-60
2022/12/08 02:36:14;;;;;;;23.70;11.27;;;1.70;99.90;;;;;;5090428;28;20067;-60
2022/12/08 02:39:05;;;;;;;24.92;10.48;;;1.70;99.90;;;;;;5105381;28;20077;-60
2022/12/08 02:42:04;;;;;;;21.63;10.88;;;1.60;99.90;;;;;;5090215;28;20040;-60
2022/12/08 02:44:46;;;;;;;23.77;10.85;;;1.60;99.90;;;;;;5097180;28;20066;-60
2022/12/08 02:47:18;;;;;;;25.20;10.23;;;1.60;99.90;;;;;;5091032;28;20040;-60
2022/12/08 02:49:46;;;;;;;21.55;10.75;;;1.60;99.90;;;;;;5089669;28;20077;-60
2022/12/08 02:52:12;;;;;;;20.92;9.88;;;1.60;99.90;;;;;;5092025;28;20090;-60
2022/12/08 02:54:43;;;;;;;24.20;9.82;;;1.60;99.90;;;;;;5096496;28;20086;-60
2022/12/08 02:57:30;;;;;;;19.42;9.40;;;1.50;99.90;;;;;;5091019;28;20553;-60
2022/12/08 03:00:07;;;;;;;17.88;7.57;;;1.50;99.90;;;;;;5090010;28;20078;-60
2022/12/08 03:02:59;;;;;;;15.02;7.03;;;1.40;99.90;;;;;;5093828;28;20050;-60
2022/12/08 03:05:58;;;;;;;17.73;8.70;;;1.40;99.90;;;;;;5090095;28;20071;-60
2022/12/08 03:08:35;;;;;;;16.43;7.63;;;1.30;99.90;;;;;;5093386;28;20047;-60
2022/12/08 03:11:20;;;;;;;21.00;9.50;;;1.30;99.90;;;;;;5092816;28;20334;-60
2022/12/08 03:13:51;;;;;;;22.52;11.13;;;1.20;99.90;;;;;;5094523;28;20089;-60
2022/12/08 03:16:28;;;;;;;26.05;11.63;;;1.10;99.90;;;;;;5115355;28;20043;-60
2022/12/08 03:19:08;;;;;;;22.73;11.30;;;1.10;99.90;;;;;;5111971;28;20047;-60
2022/12/08 03:21:38;;;;;;;22.70;10.57;;;1.10;99.90;;;;;;5094636;28;20097;-60
2022/12/08 03:24:06;;;;;;;20.98;10.30;;;1.20;99.90;;;;;;5093770;28;20035;-60
2022/12/08 03:26:40;;;;;;;20.33;10.80;;;1.20;99.90;;;;;;5099604;28;20039;-60
2022/12/08 03:29:07;;;;;;;22.80;10.30;;;1.10;99.90;;;;;;5096367;28;20044;-60
2022/12/08 03:31:40;;;;;;;20.98;10.60;;;1.10;99.90;;;;;;5093956;28;20089;-60
2022/12/08 03:34:09;;;;;;;24.15;11.25;;;1.10;99.90;;;;;;5093565;28;20055;-60
2022/12/08 03:36:36;;;;;;;21.65;10.77;;;1.10;99.90;;;;;;5094327;28;20075;-60
2022/12/08 03:39:03;;;;;;;16.25;8.85;;;1.10;99.90;;;;;;5097890;28;20080;-60
2022/12/08 03:41:30;;;;;;;25.33;10.18;;;1.10;99.90;;;;;;5101698;28;20036;-60
2022/12/08 03:43:58;;;;;;;27.92;9.48;;;1.20;99.90;;;;;;5099319;28;20104;-60
2022/12/08 03:46:28;;;;;;;19.52;9.40;;;1.10;99.90;;;;;;5094125;28;20032;-60
2022/12/08 03:48:53;;;;;;;14.98;8.55;;;1.10;99.90;;;;;;5092220;28;20043;-60
2022/12/08 03:51:21;;;;;;;16.90;7.97;;;1.20;99.90;;;;;;5093680;28;20044;-60
2022/12/08 03:53:48;;;;;;;15.70;7.85;;;1.10;99.90;;;;;;5092216;28;20048;-60
2022/12/08 03:56:25;;;;;;;18.40;8.23;;;1.20;99.90;;;;;;5093932;28;20044;-60
2022/12/08 03:58:53;;;;;;;13.32;6.30;;;1.20;99.90;;;;;;5099149;28;20500;-60
2022/12/08 04:01:20;;;;;;;20.80;8.73;;;1.20;99.90;;;;;;5096909;28;20079;-60
2022/12/08 04:03:47;;;;;;;15.82;8.48;;;1.20;99.90;;;;;;5105871;28;20032;-60
2022/12/08 04:06:14;;;;;;;17.98;8.40;;;1.20;99.90;;;;;;5093517;28;20079;-60
2022/12/08 04:08:41;;;;;;;18.40;8.23;;;1.20;99.90;;;;;;5074287;28;20064;-60
2022/12/08 04:11:09;;;;;;;16.15;8.40;;;1.20;99.90;;;;;;5093266;28;20093;-60
2022/12/08 04:13:36;;;;;;;;;;;1.20;99.90;;;;;;5108269;28;20101;-60
2022/12/08 04:16:04;;;;;;;10.65;5.28;;;1.20;99.90;;;;;;5109698;28;20399;-60
2022/12/08 04:18:32;;;;;;;24.95;11.60;;;1.20;99.90;;;;;;5114182;28;20110;-60
2022/12/08 04:20:59;;;;;;;22.75;10.98;;;1.20;99.90;;;;;;5112931;28;20449;-60
2022/12/08 04:23:25;;;;;;;13.57;7.07;;;1.20;99.90;;;;;;5109668;28;20071;-60
2022/12/08 04:25:52;;;;;;;17.08;6.13;;;1.20;99.90;;;;;;5089521;28;20456;-60
2022/12/08 04:28:19;;;;;;;17.08;7.75;;;1.20;99.90;;;;;;5110481;28;20491;-59
2022/12/08 04:30:47;;;;;;;16.08;8.60;;;1.10;99.90;;;;;;5091872;28;20048;-60
2022/12/08 04:33:14;;;;;;;17.40;8.88;;;1.10;99.90;;;;;;5093040;28;20044;-60
2022/12/08 04:35:41;;;;;;;17.92;8.45;;;1.10;99.90;;;;;;5092308;28;20048;-60
2022/12/08 04:38:08;;;;;;;15.27;8.52;;;1.10;99.90;;;;;;5102967;28;20124;-60
2022/12/08 04:40:35;;;;;;;18.33;9.05;;;1.10;99.90;;;;;;5099390;28;20071;-60
2022/12/08 04:43:01;;;;;;;17.40;7.50;;;1.10;99.90;;;;;;5093369;28;20036;-60
2022/12/08 04:45:28;;;;;;;17.20;8.23;;;1.10;99.90;;;;;;5098557;28;20074;-60
2022/12/08 04:47:55;;;;;;;19.73;9.40;;;1.10;99.90;;;;;;5093129;28;20037;-60
2022/12/08 04:50:21;;;;;;;19.85;9.90;;;1.10;99.90;;;;;;5091858;28;20105;-60
2022/12/08 04:52:48;;;;;;;13.95;6.88;;;1.10;99.90;;;;;;5097668;28;20067;-60
2022/12/08 04:55:15;;;;;;;21.63;11.05;;;1.10;99.90;;;;;;5093243;28;20071;-60
2022/12/08 04:57:42;;;;;;;27.40;10.18;;;1.20;99.90;;;;;;5092443;28;20500;-60
2022/12/08 05:00:10;;;;;;;22.65;9.70;;;1.20;99.90;;;;;;5092003;28;20530;-60
2022/12/08 05:02:36;;;;;;;23.00;10.60;;;1.20;99.90;;;;;;5093086;28;20060;-60
2022/12/08 05:05:04;;;;;;;19.13;9.82;;;1.20;99.90;;;;;;5099597;28;20046;-60
2022/12/08 05:07:31;;;;;;;25.50;11.52;;;1.10;99.90;;;;;;5101616;28;20462;-60
2022/12/08 05:09:58;;;;;;;22.25;10.00;;;1.10;99.90;;;;;;5099994;28;20473;-60
2022/12/08 05:12:25;;;;;;;19.10;9.80;;;1.10;99.90;;;;;;5111971;28;20063;-60
2022/12/08 05:14:51;;;;;;;20.35;10.25;;;1.10;99.90;;;;;;5094078;28;20484;-60
2022/12/08 05:17:18;;;;;;;28.48;12.52;;;1.20;99.90;;;;;;5097700;28;20066;-59
2022/12/08 05:19:45;;;;;;;24.67;11.98;;;1.20;99.90;;;;;;5093231;28;20528;-59
2022/12/08 05:22:12;;;;;;;18.60;11.00;;;1.20;99.90;;;;;;5100684;28;20071;-59
2022/12/08 05:24:38;;;;;;;17.45;8.90;;;1.20;99.90;;;;;;5094988;28;20039;-59
2022/12/08 05:27:13;;;;;;;17.60;9.70;;;1.20;99.90;;;;;;5103595;28;20076;-60
2022/12/08 05:29:39;;;;;;;18.17;8.38;;;1.30;99.90;;;;;;5104749;28;20040;-60
2022/12/08 05:32:06;;;;;;;18.52;8.90;;;1.30;99.90;;;;;;5096926;28;20461;-60
2022/12/08 05:34:33;;;;;;;17.02;8.38;;;1.30;99.90;;;;;;5089454;28;20044;-59
2022/12/08 05:37:00;;;;;;;16.45;8.38;;;1.30;99.90;;;;;;5090897;28;20063;-59
2022/12/08 05:39:26;;;;;;;15.63;8.32;;;1.30;99.90;;;;;;5093954;28;20067;-59
2022/12/08 05:41:53;;;;;;;16.90;8.55;;;1.30;99.90;;;;;;5091244;28;20051;-59
2022/12/08 05:44:20;;;;;;;12.38;5.60;;;1.30;99.90;;;;;;5090434;28;20564;-59
2022/12/08 05:46:47;;;;;;;15.18;7.97;;;1.30;99.90;;;;;;5091478;28;20068;-60
2022/12/08 05:49:13;;;;;;;16.35;8.50;;;1.30;99.90;;;;;;5078105;28;20078;-60
2022/12/08 05:51:40;;;;;;;18.08;7.72;;;1.30;99.90;;;;;;5090990;28;20126;-59
2022/12/08 05:54:07;;;;;;;17.33;7.63;;;1.30;99.90;;;;;;5090786;28;20100;-60
2022/12/08 05:56:34;;;;;;;16.02;7.40;;;1.20;99.90;;;;;;5091355;28;20040;-60
2022/12/08 05:59:00;;;;;;;13.07;6.93;;;1.20;99.90;;;;;;5090982;28;20101;-59
2022/12/08 06:01:30;;;;;;;13.15;6.05;;;1.20;99.90;;;;;;5090061;28;20070;-59
2022/12/08 06:03:59;;;;;;;12.20;6.63;;;1.20;99.90;;;;;;5090450;28;20123;-59
2022/12/08 06:06:27;;;;;;;10.75;5.68;;;1.20;99.90;;;;;;5092909;28;20484;-60
2022/12/08 06:08:54;;;;;;;11.80;6.10;;;1.20;99.90;;;;;;5099506;28;20093;-59
2022/12/08 06:11:26;;;;;;;17.30;6.72;;;1.20;99.90;;;;;;5089052;28;20040;-60
2022/12/08 06:13:54;;;;;;;9.73;5.68;;;1.20;99.90;;;;;;5091423;28;20044;-59
2022/12/08 06:16:22;;;;;;;12.20;6.15;;;1.20;99.90;;;;;;5097682;28;20078;-59
2022/12/08 06:18:49;;;;;;;11.23;5.20;;;1.20;99.90;;;;;;5091489;28;20176;-59
2022/12/08 06:21:17;;;;;;;11.48;5.30;;;1.20;99.90;;;;;;5089807;28;20032;-60
2022/12/08 06:23:51;;;;;;;14.55;5.70;;;1.20;99.90;;;;;;5091354;28;20044;-59
2022/12/08 06:26:18;;;;;;;14.93;6.05;;;1.20;99.90;;;;;;5094648;28;20071;-60
2022/12/08 06:28:45;;;;;;;13.90;5.80;;;1.20;99.90;;;;;;5099598;28;20442;-59
2022/12/08 06:31:23;;;;;;;10.60;5.13;;;1.20;99.90;;;;;;5098833;28;20075;-59
2022/12/08 06:33:50;;;;;;;10.60;5.50;;;1.20;99.90;;;;;;5102219;28;20044;-60
2022/12/08 06:36:19;;;;;;;8.82;4.53;;;1.20;99.90;;;;;;5099822;28;20093;-60
2022/12/08 06:38:47;;;;;;;8.55;4.88;;;1.10;99.90;;;;;;5110416;28;20074;-59
2022/12/08 06:41:14;;;;;;;9.35;4.25;;;1.10;99.90;;;;;;5099248;28;20068;-59
2022/12/08 06:43:41;;;;;;;6.68;4.53;;;1.20;99.90;;;;;;5109787;28;20036;-59
2022/12/08 06:46:11;;;;;;;5.25;3.33;;;1.20;99.90;;;;;;5105244;28;20509;-59
2022/12/08 06:48:38;;;;;;;9.80;4.72;;;1.20;99.90;;;;;;5101809;28;20692;-59
2022/12/08 06:51:24;;;;;;;12.27;4.95;;;1.20;99.90;;;;;;5116505;28;20036;-60
2022/12/08 06:53:51;;;;;;;11.18;4.97;;;1.20;99.90;;;;;;5114944;28;20039;-60
2022/12/08 06:56:18;;;;;;;9.13;4.47;;;1.20;99.90;;;;;;5106555;28;20068;-59
2022/12/08 06:58:46;;;;;;;7.80;4.30;;;1.20;99.90;;;;;;5112003;28;20400;-59
2022/12/08 07:01:18;;;;;;;10.20;4.38;;;1.20;99.90;;;;;;5096587;28;20191;-60
2022/12/08 07:03:46;;;;;;;7.78;4.05;;;1.20;99.90;;;;;;5102883;28;20046;-59
2022/12/08 07:06:19;;;;;;;9.93;4.85;;;1.20;99.90;;;;;;5117118;28;20104;-60
2022/12/08 07:08:46;;;;;;;9.75;5.10;;;1.10;99.90;;;;;;5116499;28;20073;-59
2022/12/08 07:11:12;;;;;;;16.50;6.40;;;1.10;99.90;;;;;;5117023;28;20062;-59
2022/12/08 07:13:47;;;;;;;9.55;4.38;;;1.20;99.90;;;;;;5108145;28;20496;-59
2022/12/08 07:16:13;;;;;;;12.63;5.47;;;1.20;99.90;;;;;;5118287;28;20044;-59
2022/12/08 07:18:41;;;;;;;9.80;5.10;;;1.20;99.90;;;;;;5098381;28;20047;-59
2022/12/08 07:21:13;;;;;;;10.07;5.40;;;1.20;99.90;;;;;;5106505;28;20048;-59
2022/12/08 07:23:41;;;;;;;10.70;6.55;;;1.10;99.90;;;;;;5116624;28;20051;-59
2022/12/08 07:26:10;;;;;;;13.90;5.53;;;1.20;99.90;;;;;;5114648;28;20123;-59
2022/12/08 07:28:39;;;;;;;13.98;5.70;;;1.10;99.90;;;;;;5111792;28;20694;-60
2022/12/08 07:31:08;;;;;;;10.43;5.40;;;1.10;99.90;;;;;;5108735;28;20074;-59
2022/12/08 07:33:35;;;;;;;11.70;5.07;;;1.20;99.90;;;;;;5108262;28;20559;-59
2022/12/08 07:36:04;;;;;;;8.93;4.05;;;1.20;99.90;;;;;;5116315;28;20100;-59
2022/12/08 07:38:31;;;;;;;13.70;5.78;;;1.30;99.90;;;;;;5113647;28;20077;-59
2022/12/08 07:40:59;;;;;;;11.95;6.53;;;1.30;99.90;;;;;;5114369;28;20159;-59
2022/12/08 07:43:25;;;;;;;;;;;1.30;99.90;;;;;;5108800;28;20124;-59
2022/12/08 07:45:52;;;;;;;10.35;4.65;;;1.40;99.90;;;;;;5097265;28;20442;-59
2022/12/08 07:48:19;;;;;;;6.93;4.13;;;1.40;99.90;;;;;;5106340;28;20048;-59
2022/12/08 07:50:46;;;;;;;9.32;4.50;;;1.40;99.90;;;;;;5117504;28;20078;-59
2022/12/08 07:53:13;;;;;;;8.65;4.20;;;1.50;99.90;;;;;;5116090;28;20044;-59
2022/12/08 07:55:42;;;;;;;11.82;3.88;;;1.40;99.90;;;;;;5110096;28;20429;-59
2022/12/08 07:58:09;;;;;;;9.32;3.50;;;1.50;99.90;;;;;;5102460;28;20496;-60
2022/12/08 08:00:36;;;;;;;7.65;4.53;;;1.50;99.90;;;;;;5105858;28;20035;-60
2022/12/08 08:03:03;;;;;;;10.23;5.28;;;1.60;99.90;;;;;;5091771;28;20051;-60
2022/12/08 08:05:30;;;;;;;6.38;3.40;;;1.60;99.90;;;;;;5093515;28;20054;-60
2022/12/08 08:07:56;;;;;;;5.20;2.15;;;1.70;99.90;;;;;;5102996;28;20031;-60
2022/12/08 08:11:21;;;;;;;13.73;5.40;;;1.70;99.90;;;;;;5094617;22;20061;-61
2022/12/08 08:13:54;;;;;;;9.97;4.67;;;1.80;99.90;;;;;;5091682;28;20077;-60
2022/12/08 08:16:21;;;;;;;19.88;8.75;;;1.80;99.90;;;;;;5100734;28;20036;-60
2022/12/08 08:18:49;;;;;;;16.30;7.22;;;1.90;99.90;;;;;;5092504;28;20036;-60
2022/12/08 08:21:18;;;;;;;17.58;6.53;;;1.90;99.90;;;;;;5107779;28;20077;-60
2022/12/08 08:24:05;;;;;;;8.68;4.40;;;1.90;99.90;;;;;;5111668;28;20043;-60
2022/12/08 08:26:32;;;;;;;8.60;4.53;;;1.90;99.90;;;;;;5091583;28;20043;-60
2022/12/08 08:28:59;;;;;;;11.93;5.82;;;1.80;99.90;;;;;;5110502;28;20043;-60
2022/12/08 08:31:26;;;;;;;6.65;3.83;;;1.80;99.90;;;;;;5099034;28;20059;-60
2022/12/08 08:33:54;;;;;;;12.60;6.25;;;1.70;99.90;;;;;;5104793;28;20492;-60
2022/12/08 08:36:21;;;;;;;19.83;8.07;;;1.70;99.90;;;;;;5111742;28;20039;-60
2022/12/08 08:38:48;;;;;;;12.68;6.18;;;1.70;99.90;;;;;;5112071;28;20043;-60
2022/12/08 08:41:14;;;;;;;14.68;6.65;;;1.80;99.90;;;;;;5101409;28;20154;-60
2022/12/08 08:43:42;;;;;;;7.93;4.40;;;1.70;99.90;;;;;;5092448;28;20389;-60
2022/12/08 08:46:09;;;;;;;13.50;5.45;;;1.60;99.90;;;;;;5091957;28;20044;-60
2022/12/08 08:48:36;;;;;;;9.75;4.63;;;1.60;99.90;;;;;;5093046;28;20434;-60
2022/12/08 08:51:07;;;;;;;;;;;1.60;99.90;;;;;;5093636;28;20084;-60
2022/12/08 08:53:34;;;;;;;7.20;3.67;;;1.50;99.90;;;;;;5092132;28;19919;-60
2022/12/08 08:56:00;;;;;;;9.75;3.85;;;1.70;99.90;;;;;;5092028;28;20040;-60
2022/12/08 08:58:28;;;;;;;13.50;5.05;;;1.70;99.90;;;;;;5099505;28;20050;-60
2022/12/08 09:00:55;;;;;;;7.95;3.58;;;1.80;99.90;;;;;;5094923;28;20040;-60
2022/12/08 09:03:22;;;;;;;8.25;3.97;;;1.80;99.90;;;;;;5094843;28;20499;-60
2022/12/08 09:05:49;;;;;;;7.22;3.67;;;1.90;99.90;;;;;;5078388;28;20104;-60
2022/12/08 09:08:16;;;;;;;7.15;4.43;;;2.00;99.90;;;;;;5099775;28;20065;-60
2022/12/08 09:10:43;;;;;;;12.70;5.20;;;2.20;99.90;;;;;;5098572;28;20127;-60
2022/12/08 09:13:10;;;;;;;19.83;5.70;;;2.30;99.90;;;;;;5090226;28;20070;-60
2022/12/08 09:15:37;;;;;;;14.10;5.13;;;2.40;99.90;;;;;;5087630;28;20072;-60
2022/12/08 09:18:05;;;;;;;10.75;5.78;;;2.50;99.90;;;;;;5091368;28;20044;-60
2022/12/08 09:20:33;;;;;;;14.30;6.75;;;2.70;99.90;;;;;;5073248;28;20442;-60
2022/12/08 09:23:00;;;;;;;13.27;6.18;;;2.80;99.90;;;;;;5099595;28;20071;-61
2022/12/08 09:25:27;;;;;;;13.45;6.13;;;2.90;99.90;;;;;;5082306;28;20515;-60
2022/12/08 09:27:54;;;;;;;14.68;6.20;;;2.90;99.90;;;;;;5091919;28;20089;-60
2022/12/08 09:30:21;;;;;;;10.75;4.70;;;2.90;99.90;;;;;;5085940;28;20128;-60
2022/12/08 09:32:48;;;;;;;16.08;5.75;;;2.80;99.90;;;;;;5110979;28;20069;-60
2022/12/08 09:35:15;;;;;;;9.20;5.15;;;2.90;99.90;;;;;;5110786;28;20454;-61
2022/12/08 09:37:42;;;;;;;13.98;4.55;;;2.90;99.90;;;;;;5106337;28;20403;-60
2022/12/08 09:40:14;;;;;;;15.50;4.72;;;2.80;99.90;;;;;;5101419;28;20036;-60
2022/12/08 09:42:50;;;;;;;12.50;5.68;;;2.90;99.90;;;;;;5098640;28;20550;-60
2022/12/08 09:45:18;;;;;;;10.88;5.13;;;2.90;99.90;;;;;;5098186;28;20499;-60
2022/12/08 09:48:17;;;;;;;10.02;4.32;;;2.90;99.90;;;;;;5093213;28;20048;-60
2022/12/08 09:50:51;;;;;;;10.13;4.82;;;2.70;99.90;;;;;;5082137;28;20051;-60
2022/12/08 09:53:41;;;;;;;11.50;4.93;;;2.80;99.90;;;;;;5101602;28;20031;-60
2022/12/08 09:56:15;;;;;;;9.05;4.40;;;2.80;99.90;;;;;;5101178;28;20408;-60
2022/12/08 09:58:54;;;;;;;10.68;4.90;;;2.90;99.90;;;;;;5089120;28;20373;-60
2022/12/08 10:01:22;;;;;;;10.63;5.35;;;2.80;99.90;;;;;;5103516;27;20180;-60
2022/12/08 10:03:50;;;;;;;14.75;5.00;;;2.90;99.90;;;;;;5131633;27;20110;-60
2022/12/08 10:06:38;;;;;;;10.10;5.28;;;2.90;99.90;;;;;;5120306;27;20489;-60
2022/12/08 10:09:23;;;;;;;7.22;4.10;;;3.10;99.90;;;;;;5091213;28;20075;-60
2022/12/08 10:12:22;;;;;;;8.35;4.38;;;3.10;99.90;;;;;;5089171;28;20032;-60
2022/12/08 10:15:07;;;;;;;11.93;5.35;;;3.20;99.90;;;;;;5054696;28;20113;-60
2022/12/08 10:17:39;;;;;;;9.13;4.72;;;3.20;99.90;;;;;;5089356;28;20118;-61
2022/12/08 10:20:17;;;;;;;9.77;4.85;;;3.20;99.90;;;;;;5089577;28;20040;-60
2022/12/08 10:22:48;;;;;;;8.70;3.83;;;3.30;99.90;;;;;;5096089;28;20070;-60
2022/12/08 10:25:21;;;;;;;8.25;4.57;;;3.30;99.90;;;;;;5093467;28;20839;-60
2022/12/08 10:27:50;;;;;;;7.43;3.90;;;3.30;99.90;;;;;;5090168;28;20063;-60
2022/12/08 10:30:21;;;;;;;9.40;4.47;;;3.30;99.90;;;;;;5090161;28;20070;-60
2022/12/08 10:32:50;;;;;;;17.00;4.60;;;3.30;99.90;;;;;;5089676;28;20453;-60
2022/12/08 10:35:19;;;;;;;9.57;4.40;;;3.30;99.90;;;;;;5094030;28;20039;-60
2022/12/08 10:38:01;;;;;;;7.47;4.32;;;3.30;99.90;;;;;;5100488;28;20043;-60
2022/12/08 10:40:34;;;;;;;9.98;3.53;;;3.40;99.90;;;;;;5093575;28;20040;-60
2022/12/08 10:43:16;;;;;;;9.52;4.90;;;3.50;99.90;;;;;;5094383;28;20035;-60
2022/12/08 10:45:43;;;;;;;8.00;4.18;;;3.50;99.90;;;;;;5088577;28;20040;-60
2022/12/08 10:48:18;;;;;;;14.38;5.32;;;3.60;99.90;;;;;;5096792;28;20092;-60
2022/12/08 10:50:57;;;;;;;12.45;4.43;;;3.60;99.90;;;;;;5096905;28;20293;-60
2022/12/08 10:53:29;;;;;;;9.98;5.32;;;3.50;99.90;;;;;;5106918;28;20097;-60
2022/12/08 10:56:01;;;;;;;8.57;5.20;;;3.50;99.90;;;;;;5105160;28;20040;-60
2022/12/08 10:58:34;;;;;;;10.90;4.65;;;3.50;99.90;;;;;;5089867;28;20044;-60
2022/12/08 11:01:20;;;;;;;10.02;5.30;;;3.50;99.90;;;;;;5089894;28;20040;-60
2022/12/08 11:03:57;;;;;;;9.77;5.18;;;3.40;99.90;;;;;;5089255;28;20040;-60
2022/12/08 11:06:36;;;;;;;8.70;5.10;;;3.60;99.90;;;;;;5090354;28;20048;-60
2022/12/08 11:09:04;;;;;;;8.65;4.57;;;3.60;99.90;;;;;;5089650;28;20036;-60
2022/12/08 11:11:58;;;;;;;10.93;5.03;;;3.70;99.90;;;;;;5090100;28;20036;-60
2022/12/08 11:14:27;;;;;;;10.63;5.03;;;3.80;99.90;;;;;;5095033;28;20044;-60
2022/12/08 11:17:07;;;;;;;10.23;5.80;;;3.80;99.90;;;;;;5093735;28;20052;-60
2022/12/08 11:19:53;;;;;;;9.07;4.80;;;3.80;99.90;;;;;;5095945;28;20071;-59
2022/12/08 11:22:24;;;;;;;9.10;4.40;;;3.90;99.90;;;;;;5097238;28;20121;-60
2022/12/08 11:25:06;;;;;;;8.68;4.90;;;3.90;99.90;;;;;;5109402;28;20043;-59
2022/12/08 11:27:35;;;;;;;9.13;5.38;;;3.80;99.90;;;;;;5109961;28;20712;-60
2022/12/08 11:30:12;;;;;;;11.38;5.22;;;3.80;99.90;;;;;;5120872;28;20552;-60
2022/12/08 11:32:46;;;;;;;12.90;5.63;;;3.80;99.90;;;;;;5094396;28;20512;-60
2022/12/08 11:35:31;;;;;;;18.75;5.50;;;3.60;99.90;;;;;;5082280;28;20067;-60
2022/12/08 11:38:04;;;;;;;9.23;5.25;;;3.60;99.90;;;;;;5097569;28;20105;-60
2022/12/08 11:40:51;;;;;;;19.80;8.13;;;3.60;99.90;;;;;;5093594;28;20052;-60
2022/12/08 11:43:24;;;;;;;19.52;9.38;;;3.60;99.90;;;;;;5092665;28;20123;-60
2022/12/08 11:46:21;;;;;;;22.33;8.23;;;3.70;99.90;;;;;;5095018;28;20441;-60
2022/12/08 11:48:52;;;;;;;21.48;8.10;;;3.70;99.90;;;;;;5101159;28;20043;-60
2022/12/08 11:51:32;;;;;;;14.13;6.50;;;3.80;99.90;;;;;;5092537;28;20040;-60
2022/12/08 11:54:17;;;;;;;23.95;9.55;;;3.70;99.90;;;;;;5092864;28;20044;-60
2022/12/08 11:56:48;;;;;;;12.68;5.15;;;3.70;99.90;;;;;;5107861;28;20408;-60
2022/12/08 11:59:21;;;;;;;9.43;5.32;;;3.70;99.90;;;;;;5094730;28;20098;-60
2022/12/08 12:01:48;;;;;;;17.92;5.78;;;3.80;99.90;;;;;;5092970;28;20120;-60
2022/12/08 12:04:36;;;;;;;11.48;5.45;;;3.90;99.90;;;;;;5092670;28;20058;-60
2022/12/08 12:07:15;;;;;;;11.47;4.17;;;4.00;99.90;;;;;;5091909;28;20052;-60
2022/12/08 12:10:11;;;;;;;13.98;5.85;;;4.00;99.90;;;;;;5093922;28;20110;-60
2022/12/08 12:12:42;;;;;;;27.63;9.60;;;3.90;99.90;;;;;;5094121;28;20085;-60
2022/12/08 12:15:33;;;;;;;37.25;13.40;;;3.90;99.90;;;;;;5094630;28;20055;-60
2022/12/08 12:18:24;;;;;;;30.33;11.23;;;4.00;99.90;;;;;;5094964;28;20040;-60
2022/12/08 12:20:59;;;;;;;31.15;12.88;;;4.10;99.90;;;;;;5095317;28;20063;-60
2022/12/08 12:23:39;;;;;;;18.08;7.00;;;4.20;99.90;;;;;;5097050;28;20122;-60
2022/12/08 12:26:15;;;;;;;13.63;6.43;;;4.20;99.90;;;;;;5091780;28;20055;-60
2022/12/08 12:28:54;;;;;;;12.23;6.45;;;4.30;99.90;;;;;;5101252;28;20043;-60
2022/12/08 12:31:25;;;;;;;13.55;6.72;;;4.40;99.90;;;;;;5101695;28;20040;-60
2022/12/08 12:34:03;;;;;;;10.45;5.30;;;4.30;99.90;;;;;;5097492;28;20046;-60
2022/12/08 12:36:31;;;;;;;21.02;8.90;;;4.20;99.90;;;;;;5103454;28;20032;-60
2022/12/08 12:38:59;;;;;;;12.25;5.82;;;4.20;99.90;;;;;;5094539;28;20113;-60
2022/12/08 12:41:31;;;;;;;11.73;5.35;;;4.20;99.90;;;;;;5095351;28;20039;-60
2022/12/08 12:44:13;;;;;;;14.23;6.07;;;4.20;99.90;;;;;;5097756;28;20036;-60
2022/12/08 12:46:52;;;;;;;7.70;4.32;;;4.20;99.90;;;;;;5099803;28;20032;-60
2022/12/08 12:49:37;;;;;;;;;;;4.20;99.90;;;;;;5099680;28;20040;-60
2022/12/08 12:52:22;;;;;;;15.50;5.32;;;4.30;99.90;;;;;;5094386;28;19927;-60
2022/12/08 12:54:49;;;;;;;8.18;4.00;;;4.40;99.90;;;;;;5096834;28;20472;-60
2022/12/08 12:57:18;;;;;;;11.20;5.68;;;4.40;99.90;;;;;;5100457;28;20101;-60
2022/12/08 12:59:51;;;;;;;8.30;4.70;;;4.40;99.90;;;;;;5097287;28;20039;-60
2022/12/08 13:02:38;;;;;;;6.43;3.65;;;4.40;99.90;;;;;;5101955;28;20057;-60
2022/12/08 13:05:28;;;;;;;8.02;4.00;;;4.40;99.90;;;;;;5104833;28;20048;-60
2022/12/08 13:08:13;;;;;;;4.93;2.67;;;4.40;99.90;;;;;;5101441;28;20085;-60
2022/12/08 13:11:10;;;;;;;7.55;3.95;;;4.40;99.90;;;;;;5108484;28;20039;-60
2022/12/08 13:13:54;;;;;;;9.48;4.60;;;4.30;99.90;;;;;;5109370;28;20040;-60
2022/12/08 13:16:24;;;;;;;7.30;3.53;;;4.30;99.90;;;;;;5110458;28;20027;-60
2022/12/08 13:18:56;;;;;;;6.40;3.17;;;4.30;99.90;;;;;;5108339;28;20042;-60